createdAt,value
2018-04-22T00:02:52.208Z,13.43
2018-04-22T00:08:20.412Z,13.33
2018-04-22T00:13:48.567Z,12.40
2018-04-22T00:19:16.757Z,12.47
2018-04-22T00:24:44.911Z,11.27
2018-04-22T00:30:13.090Z,11.60
2018-04-22T00:35:42.211Z,11.33
2018-04-22T00:41:11.141Z,12.17
2018-04-22T00:46:40.064Z,12.33
2018-04-22T00:52:09.133Z,11.77
2018-04-22T00:57:38.039Z,12.27
2018-04-22T01:03:06.197Z,11.40
2018-04-22T01:08:35.120Z,12.13
2018-04-22T01:14:03.277Z,11.90
2018-04-22T01:19:31.479Z,12.97
2018-04-22T01:25:00.411Z,11.67
2018-04-22T01:30:29.376Z,12.33
2018-04-22T01:35:57.640Z,11.73
2018-04-22T01:41:25.803Z,11.83
2018-04-22T01:46:54.720Z,11.53
2018-04-22T01:52:23.621Z,12.57
2018-04-22T01:57:51.793Z,12.40
2018-04-22T02:03:20.717Z,11.40
2018-04-22T02:08:48.880Z,11.63
2018-04-22T02:14:17.020Z,12.10
2018-04-22T02:19:45.186Z,11.50
2018-04-22T02:25:14.139Z,11.83
2018-04-22T02:30:42.276Z,12.47
2018-04-22T02:36:10.564Z,11.30
2018-04-22T02:41:39.501Z,11.67
2018-04-22T02:47:08.437Z,12.30
2018-04-22T02:52:37.356Z,10.63
2018-04-22T02:58:05.526Z,11.53
2018-04-22T03:03:33.702Z,13.10
2018-04-22T03:09:01.898Z,33.93
2018-04-22T03:14:30.113Z,13.30
2018-04-22T03:19:58.295Z,12.43
2018-04-22T03:25:26.464Z,11.27
2018-04-22T03:30:54.626Z,10.93
2018-04-22T03:36:23.555Z,12.60
2018-04-22T03:41:52.489Z,11.10
2018-04-22T03:47:21.412Z,10.80
2018-04-22T03:52:49.578Z,11.37
2018-04-22T03:58:18.507Z,10.73
2018-04-22T04:03:46.658Z,11.20
2018-04-22T04:09:14.795Z,10.50
2018-04-22T04:14:42.950Z,12.03
2018-04-22T04:20:29.927Z,11.47
2018-04-22T04:32:22.952Z,11.60
2018-04-22T04:37:51.103Z,11.43
2018-04-22T04:43:20.030Z,11.80
2018-04-22T04:48:48.189Z,11.30
2018-04-22T04:54:16.361Z,11.00
2018-04-22T04:59:44.463Z,9.90
2018-04-22T05:05:12.616Z,10.20
2018-04-22T05:10:41.630Z,10.17
2018-04-22T05:16:09.804Z,11.57
2018-04-22T05:21:37.965Z,9.40
2018-04-22T05:27:06.315Z,9.70
2018-04-22T05:32:35.219Z,9.03
2018-04-22T05:38:03.370Z,9.10
2018-04-22T05:43:31.518Z,7.90
2018-04-22T05:48:59.713Z,6.93
2018-04-22T05:54:28.659Z,6.97
2018-04-22T05:59:57.567Z,6.97
2018-04-22T06:05:25.706Z,6.57
2018-04-22T06:10:54.692Z,5.80
2018-04-22T06:16:24.842Z,7.57
2018-04-22T06:21:52.994Z,7.20
2018-04-22T06:27:21.135Z,6.30
2018-04-22T06:32:49.268Z,6.43
2018-04-22T06:38:18.172Z,6.43
2018-04-22T06:43:46.334Z,6.70
2018-04-22T06:49:19.158Z,6.30
2018-04-22T06:54:49.734Z,6.10
2018-04-22T07:00:18.900Z,6.20
2018-04-22T07:05:47.045Z,5.30
2018-04-22T07:11:15.231Z,5.40
2018-04-22T07:16:43.387Z,5.83
2018-04-22T07:22:11.532Z,5.70
2018-04-22T07:27:43.901Z,5.40
2018-04-22T07:33:12.061Z,5.90
2018-04-22T07:38:40.215Z,5.07
2018-04-22T07:44:13.289Z,5.60
2018-04-22T07:49:41.460Z,5.47
2018-04-22T07:55:10.638Z,4.53
2018-04-22T08:00:39.989Z,5.03
2018-04-22T08:06:08.181Z,5.40
2018-04-22T08:11:39.270Z,4.80
2018-04-22T08:17:07.445Z,5.70
2018-04-22T08:22:36.578Z,5.00
2018-04-22T08:28:05.515Z,5.13
2018-04-22T08:33:33.812Z,5.37
2018-04-22T08:39:01.985Z,5.33
2018-04-22T08:44:30.185Z,5.50
2018-04-22T08:49:58.499Z,4.97
2018-04-22T08:55:26.741Z,5.10
2018-04-22T09:00:54.888Z,5.30
2018-04-22T09:06:26.105Z,5.70
2018-04-22T09:11:54.256Z,5.00
2018-04-22T09:17:22.489Z,5.40
2018-04-22T09:22:50.772Z,5.63
2018-04-22T09:28:18.938Z,5.10
2018-04-22T09:33:47.090Z,5.87
2018-04-22T09:39:16.049Z,5.50
2018-04-22T09:44:44.202Z,5.97
2018-04-22T09:50:12.347Z,6.50
2018-04-22T09:55:40.550Z,5.50
2018-04-22T10:01:08.727Z,5.63
2018-04-22T10:06:36.888Z,5.80
2018-04-22T10:12:05.106Z,7.07
2018-04-22T10:17:34.998Z,7.03
2018-04-22T10:23:04.174Z,6.53
2018-04-22T10:28:32.537Z,6.50
2018-04-22T10:34:01.519Z,5.90
2018-04-22T10:39:30.721Z,6.10
2018-04-22T10:44:58.899Z,6.60
2018-04-22T10:50:27.277Z,5.93
2018-04-22T10:55:55.426Z,6.30
2018-04-22T11:01:24.489Z,5.43
2018-04-22T11:06:52.705Z,5.20
2018-04-22T11:12:20.867Z,5.47
2018-04-22T11:17:49.041Z,4.53
2018-04-22T11:23:18.273Z,4.27
2018-04-22T11:28:58.109Z,4.87
2018-04-22T11:34:28.351Z,4.30
2018-04-22T11:39:57.296Z,4.93
2018-04-22T11:45:25.488Z,4.40
2018-04-22T11:50:53.638Z,4.80
2018-04-22T11:56:21.794Z,4.30
2018-04-22T12:01:49.941Z,4.10
2018-04-22T12:07:18.158Z,4.77
2018-04-22T12:12:46.315Z,4.03
2018-04-22T12:18:15.536Z,4.07
2018-04-22T12:23:44.455Z,4.47
2018-04-22T12:29:12.622Z,3.60
2018-04-22T12:34:41.751Z,3.30
2018-04-22T12:40:11.680Z,3.40
2018-04-22T12:45:39.956Z,3.27
2018-04-22T12:51:08.176Z,4.00
2018-04-22T12:56:36.330Z,4.07
2018-04-22T13:02:04.533Z,3.97
2018-04-22T13:07:32.738Z,4.57
2018-04-22T13:13:01.928Z,4.10
2018-04-22T13:18:30.128Z,3.50
2018-04-22T13:23:58.324Z,3.70
2018-04-22T13:29:26.556Z,4.17
2018-04-22T13:34:55.033Z,3.47
2018-04-22T13:40:24.044Z,3.97
2018-04-22T13:45:52.238Z,3.73
2018-04-22T13:51:21.349Z,3.90
2018-04-22T13:56:50.818Z,3.60
2018-04-22T14:02:18.968Z,3.57
2018-04-22T14:07:47.529Z,3.80
2018-04-22T14:13:16.026Z,3.60
2018-04-22T14:18:44.188Z,3.43
2018-04-22T14:24:13.101Z,2.83
2018-04-22T14:29:41.825Z,3.57
2018-04-22T14:35:10.057Z,2.63
2018-04-22T14:40:38.267Z,2.67
2018-04-22T14:46:14.129Z,2.70
2018-04-22T14:51:42.279Z,2.20
2018-04-22T14:57:10.450Z,2.97
2018-04-22T15:02:39.373Z,2.70
2018-04-22T15:08:07.724Z,2.90
2018-04-22T15:13:37.049Z,3.00
2018-04-22T15:19:06.004Z,2.73
2018-04-22T15:24:37.905Z,2.83
2018-04-22T15:30:07.210Z,3.43
2018-04-22T15:35:36.590Z,3.03
2018-04-22T15:41:05.594Z,2.70
2018-04-22T15:46:34.752Z,3.40
2018-04-22T15:52:03.106Z,3.10
2018-04-22T15:57:32.119Z,3.60
2018-04-22T16:03:00.325Z,3.23
2018-04-22T16:08:28.531Z,4.07
2018-04-22T16:13:57.894Z,3.53
2018-04-22T16:19:26.186Z,3.30
2018-04-22T16:24:54.357Z,3.20
2018-04-22T16:30:23.654Z,3.40
2018-04-22T16:35:52.722Z,2.80
2018-04-22T16:41:21.197Z,3.70
2018-04-22T16:46:51.385Z,3.77
2018-04-22T16:52:19.532Z,3.50
2018-04-22T16:57:49.664Z,3.70
2018-04-22T17:03:17.847Z,3.70
2018-04-22T17:08:46.002Z,3.43
2018-04-22T17:14:16.310Z,3.67
2018-04-22T17:19:46.493Z,3.47
2018-04-22T17:25:20.773Z,3.70
2018-04-22T17:30:49.000Z,4.33
2018-04-22T17:36:17.206Z,3.00
2018-04-22T17:41:47.241Z,3.73
2018-04-22T17:47:16.428Z,4.60
2018-04-22T17:52:45.399Z,3.93
2018-04-22T17:58:13.548Z,4.60
2018-04-22T18:03:41.705Z,6.53
2018-04-22T18:09:11.355Z,6.37
2018-04-22T18:14:39.629Z,26.90
2018-04-22T18:20:09.022Z,21.93
2018-04-22T18:25:37.267Z,6.60
2018-04-22T18:31:05.548Z,6.10
2018-04-22T18:36:33.699Z,6.57
2018-04-22T18:42:02.665Z,12.80
2018-04-22T18:47:30.822Z,7.10
2018-04-22T18:52:59.266Z,7.23
2018-04-22T18:58:27.467Z,7.37
2018-04-22T19:03:55.620Z,7.30
2018-04-22T19:09:24.558Z,8.40
2018-04-22T19:14:56.393Z,8.70
2018-04-22T19:20:24.536Z,8.50
2018-04-22T19:25:52.697Z,8.17
2018-04-22T19:31:21.634Z,8.03
2018-04-22T19:36:49.924Z,10.17
2018-04-22T19:42:19.058Z,9.53
2018-04-22T19:47:47.237Z,10.03
2018-04-22T19:53:16.189Z,9.20
2018-04-22T19:58:44.952Z,12.43
2018-04-22T20:04:13.160Z,10.93
2018-04-22T20:09:41.477Z,11.17
2018-04-22T20:15:09.651Z,10.33
2018-04-22T20:20:42.390Z,11.00
2018-04-22T20:26:11.336Z,10.47
2018-04-22T20:31:41.195Z,12.50
2018-04-22T20:37:10.104Z,11.00
2018-04-22T20:42:38.263Z,10.20
2018-04-22T20:48:07.208Z,9.27
2018-04-22T20:53:35.370Z,9.10
2018-04-22T20:59:04.594Z,9.37
2018-04-22T21:04:32.771Z,9.30
2018-04-22T21:10:01.757Z,8.33
2018-04-22T21:15:29.934Z,7.60
2018-04-22T21:20:59.102Z,7.83
2018-04-22T21:26:28.165Z,7.13
2018-04-22T21:31:56.352Z,6.90
2018-04-22T21:37:25.619Z,6.53
2018-04-22T21:42:53.790Z,6.40
2018-04-22T21:48:28.389Z,7.53
2018-04-22T21:53:57.326Z,6.57
2018-04-22T21:59:26.242Z,5.93
2018-04-22T22:04:54.385Z,7.13
2018-04-22T22:10:23.324Z,6.77
2018-04-22T22:15:53.904Z,6.57
2018-04-22T22:21:22.830Z,6.50
2018-04-22T22:26:51.738Z,6.60
2018-04-22T22:32:28.247Z,6.03
2018-04-22T22:37:56.402Z,5.90
2018-04-22T22:43:24.552Z,5.80
2018-04-22T22:48:52.699Z,5.97
2018-04-22T22:54:20.843Z,5.40
2018-04-22T22:59:48.988Z,5.47
2018-04-22T23:05:17.948Z,5.80
2018-04-22T23:10:46.093Z,5.60
2018-04-22T23:16:14.256Z,5.17
2018-04-22T23:21:42.399Z,5.30
2018-04-22T23:27:10.547Z,6.00
2018-04-22T23:32:38.721Z,5.77
2018-04-22T23:38:07.626Z,4.90
2018-04-22T23:43:35.790Z,5.67
2018-04-22T23:49:04.728Z,5.40
2018-04-22T23:54:32.931Z,4.93
